sensor_id;sensor_type;location;lat;lon;timestamp;P1;durP1;ratioP1;P2;durP2;ratioP2
9420;SDS011;4749;51.398;5.466;2022-08-04T00:01:06;6.43;;;2.42;;
9420;SDS011;4749;51.398;5.466;2022-08-04T00:03:45;9.38;;;2.70;;
9420;SDS011;4749;51.398;5.466;2022-08-04T00:06:44;5.03;;;2.72;;
9420;SDS011;4749;51.398;5.466;2022-08-04T00:12:31;7.03;;;2.50;;
9420;SDS011;4749;51.398;5.466;2022-08-04T00:15:05;5.53;;;2.63;;
9420;SDS011;4749;51.398;5.466;2022-08-04T00:17:43;5.30;;;2.60;;
9420;SDS011;4749;51.398;5.466;2022-08-04T00:20:19;8.30;;;3.05;;
9420;SDS011;4749;51.398;5.466;2022-08-04T00:22:49;5.18;;;2.95;;
9420;SDS011;4749;51.398;5.466;2022-08-04T00:25:18;7.50;;;2.97;;
9420;SDS011;4749;51.398;5.466;2022-08-04T00:27:45;7.70;;;2.78;;
9420;SDS011;4749;51.398;5.466;2022-08-04T00:30:13;6.85;;;3.70;;
9420;SDS011;4749;51.398;5.466;2022-08-04T00:32:40;8.52;;;3.10;;
9420;SDS011;4749;51.398;5.466;2022-08-04T00:35:08;8.32;;;3.33;;
9420;SDS011;4749;51.398;5.466;2022-08-04T00:37:39;6.10;;;3.08;;
9420;SDS011;4749;51.398;5.466;2022-08-04T00:43:20;4.90;;;3.05;;
9420;SDS011;4749;51.398;5.466;2022-08-04T00:46:08;7.15;;;2.67;;
9420;SDS011;4749;51.398;5.466;2022-08-04T00:51:46;6.97;;;2.45;;
9420;SDS011;4749;51.398;5.466;2022-08-04T01:00:12;9.68;;;3.22;;
9420;SDS011;4749;51.398;5.466;2022-08-04T01:09:02;6.22;;;2.80;;
9420;SDS011;4749;51.398;5.466;2022-08-04T01:14:47;7.40;;;2.72;;
9420;SDS011;4749;51.398;5.466;2022-08-04T01:20:40;8.65;;;2.53;;
9420;SDS011;4749;51.398;5.466;2022-08-04T01:29:25;4.72;;;2.05;;
9420;SDS011;4749;51.398;5.466;2022-08-04T01:32:19;6.47;;;2.25;;
9420;SDS011;4749;51.398;5.466;2022-08-04T01:35:02;7.47;;;2.65;;
9420;SDS011;4749;51.398;5.466;2022-08-04T01:38:00;5.53;;;2.47;;
9420;SDS011;4749;51.398;5.466;2022-08-04T01:40:55;4.88;;;2.60;;
9420;SDS011;4749;51.398;5.466;2022-08-04T01:43:26;8.63;;;2.42;;
9420;SDS011;4749;51.398;5.466;2022-08-04T01:45:56;8.52;;;2.20;;
9420;SDS011;4749;51.398;5.466;2022-08-04T01:48:27;6.57;;;2.20;;
9420;SDS011;4749;51.398;5.466;2022-08-04T01:51:02;2.95;;;2.30;;
9420;SDS011;4749;51.398;5.466;2022-08-04T01:53:33;6.00;;;2.40;;
9420;SDS011;4749;51.398;5.466;2022-08-04T01:56:07;5.53;;;2.30;;
9420;SDS011;4749;51.398;5.466;2022-08-04T01:58:36;7.30;;;2.20;;
9420;SDS011;4749;51.398;5.466;2022-08-04T02:01:08;5.00;;;2.10;;
9420;SDS011;4749;51.398;5.466;2022-08-04T02:03:38;4.65;;;2.30;;
9420;SDS011;4749;51.398;5.466;2022-08-04T02:06:42;6.32;;;2.38;;
9420;SDS011;4749;51.398;5.466;2022-08-04T02:09:22;6.03;;;2.50;;
9420;SDS011;4749;51.398;5.466;2022-08-04T02:12:36;4.03;;;2.20;;
9420;SDS011;4749;51.398;5.466;2022-08-04T02:15:15;5.47;;;2.22;;
9420;SDS011;4749;51.398;5.466;2022-08-04T02:17:59;6.40;;;2.30;;
9420;SDS011;4749;51.398;5.466;2022-08-04T02:20:42;5.70;;;2.30;;
9420;SDS011;4749;51.398;5.466;2022-08-04T02:23:27;4.53;;;2.08;;
9420;SDS011;4749;51.398;5.466;2022-08-04T02:26:04;4.47;;;2.08;;
9420;SDS011;4749;51.398;5.466;2022-08-04T02:29:08;4.88;;;2.25;;
9420;SDS011;4749;51.398;5.466;2022-08-04T02:32:04;7.28;;;2.05;;
9420;SDS011;4749;51.398;5.466;2022-08-04T02:34:38;7.82;;;2.35;;
9420;SDS011;4749;51.398;5.466;2022-08-04T02:37:15;5.05;;;2.67;;
9420;SDS011;4749;51.398;5.466;2022-08-04T02:39:43;6.30;;;2.03;;
9420;SDS011;4749;51.398;5.466;2022-08-04T02:42:15;6.40;;;2.20;;
9420;SDS011;4749;51.398;5.466;2022-08-04T02:44:42;6.45;;;2.30;;
9420;SDS011;4749;51.398;5.466;2022-08-04T02:47:20;8.30;;;2.53;;
9420;SDS011;4749;51.398;5.466;2022-08-04T02:50:09;4.80;;;1.92;;
9420;SDS011;4749;51.398;5.466;2022-08-04T02:52:55;7.18;;;2.47;;
9420;SDS011;4749;51.398;5.466;2022-08-04T02:55:26;5.93;;;2.40;;
9420;SDS011;4749;51.398;5.466;2022-08-04T02:57:56;6.15;;;2.47;;
9420;SDS011;4749;51.398;5.466;2022-08-04T03:00:27;8.70;;;2.38;;
9420;SDS011;4749;51.398;5.466;2022-08-04T03:15:14;5.40;;;2.13;;
9420;SDS011;4749;51.398;5.466;2022-08-04T03:18:00;7.78;;;2.10;;
9420;SDS011;4749;51.398;5.466;2022-08-04T03:27:11;5.30;;;2.00;;
9420;SDS011;4749;51.398;5.466;2022-08-04T03:33:33;5.43;;;2.42;;
9420;SDS011;4749;51.398;5.466;2022-08-04T03:55:43;3.75;;;2.08;;
9420;SDS011;4749;51.398;5.466;2022-08-04T04:01:52;5.50;;;2.15;;
9420;SDS011;4749;51.398;5.466;2022-08-04T04:07:58;8.15;;;2.10;;
9420;SDS011;4749;51.398;5.466;2022-08-04T04:17:07;9.77;;;2.72;;
9420;SDS011;4749;51.398;5.466;2022-08-04T04:20:11;9.68;;;2.78;;
9420;SDS011;4749;51.398;5.466;2022-08-04T04:22:59;8.20;;;2.13;;
9420;SDS011;4749;51.398;5.466;2022-08-04T04:37:45;7.90;;;2.00;;
9420;SDS011;4749;51.398;5.466;2022-08-04T04:51:59;6.15;;;2.33;;
9420;SDS011;4749;51.398;5.466;2022-08-04T04:54:33;5.70;;;1.80;;
9420;SDS011;4749;51.398;5.466;2022-08-04T04:57:23;7.20;;;2.08;;
9420;SDS011;4749;51.398;5.466;2022-08-04T05:00:15;6.17;;;2.13;;
9420;SDS011;4749;51.398;5.466;2022-08-04T05:06:28;6.97;;;2.20;;
9420;SDS011;4749;51.398;5.466;2022-08-04T05:16:15;2.78;;;2.08;;
9420;SDS011;4749;51.398;5.466;2022-08-04T05:18:47;6.43;;;2.22;;
9420;SDS011;4749;51.398;5.466;2022-08-04T05:24:05;6.82;;;2.35;;
9420;SDS011;4749;51.398;5.466;2022-08-04T05:26:39;10.50;;;2.17;;
9420;SDS011;4749;51.398;5.466;2022-08-04T05:29:15;10.05;;;2.33;;
9420;SDS011;4749;51.398;5.466;2022-08-04T05:32:00;5.10;;;2.10;;
9420;SDS011;4749;51.398;5.466;2022-08-04T05:34:36;8.52;;;2.00;;
9420;SDS011;4749;51.398;5.466;2022-08-04T05:37:11;7.63;;;2.20;;
9420;SDS011;4749;51.398;5.466;2022-08-04T05:40:18;4.80;;;2.30;;
9420;SDS011;4749;51.398;5.466;2022-08-04T05:42:39;5.20;;;2.10;;
9420;SDS011;4749;51.398;5.466;2022-08-04T05:45:06;10.15;;;2.30;;
9420;SDS011;4749;51.398;5.466;2022-08-04T05:47:35;6.55;;;1.77;;
9420;SDS011;4749;51.398;5.466;2022-08-04T05:50:03;5.47;;;2.00;;
9420;SDS011;4749;51.398;5.466;2022-08-04T05:52:34;9.60;;;2.72;;
9420;SDS011;4749;51.398;5.466;2022-08-04T05:55:03;6.95;;;2.05;;
9420;SDS011;4749;51.398;5.466;2022-08-04T05:57:34;7.25;;;2.20;;
9420;SDS011;4749;51.398;5.466;2022-08-04T06:00:04;6.57;;;2.17;;
9420;SDS011;4749;51.398;5.466;2022-08-04T06:02:53;9.75;;;2.65;;
9420;SDS011;4749;51.398;5.466;2022-08-04T06:05:21;6.30;;;2.30;;
9420;SDS011;4749;51.398;5.466;2022-08-04T06:07:50;5.65;;;2.15;;
9420;SDS011;4749;51.398;5.466;2022-08-04T06:10:37;8.40;;;2.15;;
9420;SDS011;4749;51.398;5.466;2022-08-04T06:13:07;5.65;;;2.20;;
9420;SDS011;4749;51.398;5.466;2022-08-04T06:15:59;5.72;;;2.17;;
9420;SDS011;4749;51.398;5.466;2022-08-04T06:18:28;8.65;;;2.53;;
9420;SDS011;4749;51.398;5.466;2022-08-04T06:21:17;6.22;;;2.00;;
9420;SDS011;4749;51.398;5.466;2022-08-04T06:23:48;5.40;;;2.25;;
9420;SDS011;4749;51.398;5.466;2022-08-04T06:26:26;8.85;;;1.98;;
9420;SDS011;4749;51.398;5.466;2022-08-04T06:28:55;7.72;;;2.50;;
9420;SDS011;4749;51.398;5.466;2022-08-04T06:31:23;8.63;;;2.63;;
9420;SDS011;4749;51.398;5.466;2022-08-04T06:34:29;7.88;;;2.40;;
9420;SDS011;4749;51.398;5.466;2022-08-04T06:36:57;7.82;;;2.38;;
9420;SDS011;4749;51.398;5.466;2022-08-04T06:39:25;9.27;;;2.33;;
9420;SDS011;4749;51.398;5.466;2022-08-04T06:41:54;10.70;;;2.78;;
9420;SDS011;4749;51.398;5.466;2022-08-04T06:44:43;10.70;;;2.47;;
9420;SDS011;4749;51.398;5.466;2022-08-04T06:47:13;4.88;;;1.95;;
9420;SDS011;4749;51.398;5.466;2022-08-04T06:49:45;5.97;;;2.05;;
9420;SDS011;4749;51.398;5.466;2022-08-04T06:52:34;10.52;;;2.22;;
9420;SDS011;4749;51.398;5.466;2022-08-04T06:55:03;6.00;;;2.30;;
9420;SDS011;4749;51.398;5.466;2022-08-04T06:57:33;9.23;;;3.20;;
9420;SDS011;4749;51.398;5.466;2022-08-04T07:00:04;8.73;;;2.55;;
9420;SDS011;4749;51.398;5.466;2022-08-04T07:02:38;8.73;;;3.05;;
9420;SDS011;4749;51.398;5.466;2022-08-04T07:05:16;9.43;;;2.38;;
9420;SDS011;4749;51.398;5.466;2022-08-04T07:07:45;5.28;;;2.22;;
9420;SDS011;4749;51.398;5.466;2022-08-04T07:10:23;8.90;;;2.78;;
9420;SDS011;4749;51.398;5.466;2022-08-04T07:12:55;8.05;;;3.00;;
9420;SDS011;4749;51.398;5.466;2022-08-04T07:15:24;8.07;;;2.60;;
9420;SDS011;4749;51.398;5.466;2022-08-04T07:17:53;9.98;;;2.60;;
9420;SDS011;4749;51.398;5.466;2022-08-04T07:20:25;7.70;;;2.88;;
9420;SDS011;4749;51.398;5.466;2022-08-04T07:23:04;7.40;;;2.67;;
9420;SDS011;4749;51.398;5.466;2022-08-04T07:25:34;8.45;;;2.70;;
9420;SDS011;4749;51.398;5.466;2022-08-04T07:28:22;11.25;;;2.33;;
9420;SDS011;4749;51.398;5.466;2022-08-04T07:30:53;7.80;;;2.75;;
9420;SDS011;4749;51.398;5.466;2022-08-04T07:33:22;7.95;;;2.70;;
9420;SDS011;4749;51.398;5.466;2022-08-04T07:35:53;9.95;;;3.90;;
9420;SDS011;4749;51.398;5.466;2022-08-04T07:38:36;9.23;;;3.00;;
9420;SDS011;4749;51.398;5.466;2022-08-04T07:41:20;9.65;;;3.50;;
9420;SDS011;4749;51.398;5.466;2022-08-04T07:44:06;8.93;;;3.42;;
9420;SDS011;4749;51.398;5.466;2022-08-04T07:46:35;7.70;;;3.22;;
9420;SDS011;4749;51.398;5.466;2022-08-04T07:49:02;8.82;;;3.22;;
9420;SDS011;4749;51.398;5.466;2022-08-04T07:51:31;6.15;;;3.70;;
9420;SDS011;4749;51.398;5.466;2022-08-04T07:54:00;9.60;;;3.70;;
9420;SDS011;4749;51.398;5.466;2022-08-04T07:56:32;7.90;;;4.60;;
9420;SDS011;4749;51.398;5.466;2022-08-04T07:59:02;11.75;;;4.20;;
9420;SDS011;4749;51.398;5.466;2022-08-04T08:01:30;8.63;;;4.55;;
9420;SDS011;4749;51.398;5.466;2022-08-04T08:03:58;10.43;;;4.85;;
9420;SDS011;4749;51.398;5.466;2022-08-04T08:06:27;11.93;;;4.47;;
9420;SDS011;4749;51.398;5.466;2022-08-04T08:08:59;7.78;;;4.22;;
9420;SDS011;4749;51.398;5.466;2022-08-04T08:11:47;9.95;;;4.45;;
9420;SDS011;4749;51.398;5.466;2022-08-04T08:14:37;11.75;;;4.82;;
9420;SDS011;4749;51.398;5.466;2022-08-04T08:17:04;9.50;;;5.15;;
9420;SDS011;4749;51.398;5.466;2022-08-04T08:19:32;7.78;;;4.43;;
9420;SDS011;4749;51.398;5.466;2022-08-04T08:22:02;7.25;;;4.00;;
9420;SDS011;4749;51.398;5.466;2022-08-04T08:24:31;10.57;;;4.10;;
9420;SDS011;4749;51.398;5.466;2022-08-04T08:27:01;7.18;;;3.80;;
9420;SDS011;4749;51.398;5.466;2022-08-04T08:29:34;5.47;;;3.47;;
9420;SDS011;4749;51.398;5.466;2022-08-04T08:32:03;7.18;;;3.90;;
9420;SDS011;4749;51.398;5.466;2022-08-04T08:34:34;6.55;;;3.80;;
9420;SDS011;4749;51.398;5.466;2022-08-04T08:39:40;7.75;;;3.85;;
9420;SDS011;4749;51.398;5.466;2022-08-04T09:05:12;7.70;;;3.17;;
9420;SDS011;4749;51.398;5.466;2022-08-04T09:08:04;9.88;;;2.42;;
9420;SDS011;4749;51.398;5.466;2022-08-04T09:11:13;4.78;;;2.00;;
9420;SDS011;4749;51.398;5.466;2022-08-04T09:13:49;2.90;;;1.50;;
9420;SDS011;4749;51.398;5.466;2022-08-04T09:16:26;5.15;;;1.98;;
9420;SDS011;4749;51.398;5.466;2022-08-04T09:19:10;4.70;;;1.75;;
9420;SDS011;4749;51.398;5.466;2022-08-04T09:24:58;5.00;;;1.50;;
9420;SDS011;4749;51.398;5.466;2022-08-04T09:27:55;6.82;;;1.92;;
9420;SDS011;4749;51.398;5.466;2022-08-04T09:30:39;9.82;;;2.13;;
9420;SDS011;4749;51.398;5.466;2022-08-04T09:42:24;5.60;;;2.10;;
9420;SDS011;4749;51.398;5.466;2022-08-04T09:45:10;6.75;;;2.05;;
9420;SDS011;4749;51.398;5.466;2022-08-04T09:48:11;7.50;;;2.33;;
9420;SDS011;4749;51.398;5.466;2022-08-04T09:50:52;4.28;;;1.40;;
9420;SDS011;4749;51.398;5.466;2022-08-04T09:56:15;4.07;;;1.63;;
9420;SDS011;4749;51.398;5.466;2022-08-04T10:02:31;7.32;;;1.75;;
9420;SDS011;4749;51.398;5.466;2022-08-04T10:05:37;5.60;;;1.65;;
9420;SDS011;4749;51.398;5.466;2022-08-04T10:14:57;6.80;;;1.67;;
9420;SDS011;4749;51.398;5.466;2022-08-04T10:32:08;10.35;;;1.80;;
9420;SDS011;4749;51.398;5.466;2022-08-04T10:38:00;9.18;;;2.83;;
9420;SDS011;4749;51.398;5.466;2022-08-04T10:41:02;7.63;;;1.80;;
9420;SDS011;4749;51.398;5.466;2022-08-04T10:46:31;9.50;;;1.75;;
9420;SDS011;4749;51.398;5.466;2022-08-04T10:49:14;11.00;;;1.73;;
9420;SDS011;4749;51.398;5.466;2022-08-04T10:52:05;7.10;;;2.13;;
9420;SDS011;4749;51.398;5.466;2022-08-04T10:58:52;6.53;;;1.95;;
9420;SDS011;4749;51.398;5.466;2022-08-04T11:01:28;4.55;;;1.58;;
9420;SDS011;4749;51.398;5.466;2022-08-04T11:07:18;5.07;;;1.80;;
9420;SDS011;4749;51.398;5.466;2022-08-04T11:09:47;5.60;;;1.70;;
9420;SDS011;4749;51.398;5.466;2022-08-04T11:14:55;5.43;;;2.17;;
9420;SDS011;4749;51.398;5.466;2022-08-04T11:18:04;8.60;;;1.70;;
9420;SDS011;4749;51.398;5.466;2022-08-04T11:23:55;4.38;;;1.50;;
9420;SDS011;4749;51.398;5.466;2022-08-04T11:29:15;6.93;;;1.60;;
9420;SDS011;4749;51.398;5.466;2022-08-04T11:32:01;5.63;;;1.60;;
9420;SDS011;4749;51.398;5.466;2022-08-04T11:34:31;5.40;;;2.05;;
9420;SDS011;4749;51.398;5.466;2022-08-04T11:37:08;6.63;;;1.95;;
9420;SDS011;4749;51.398;5.466;2022-08-04T11:40:51;4.13;;;1.77;;
9420;SDS011;4749;51.398;5.466;2022-08-04T11:42:56;7.43;;;1.92;;
9420;SDS011;4749;51.398;5.466;2022-08-04T11:45:44;3.58;;;1.77;;
9420;SDS011;4749;51.398;5.466;2022-08-04T11:48:23;13.98;;;2.05;;
9420;SDS011;4749;51.398;5.466;2022-08-04T11:50:59;7.07;;;2.45;;
9420;SDS011;4749;51.398;5.466;2022-08-04T11:53:33;5.30;;;1.65;;
9420;SDS011;4749;51.398;5.466;2022-08-04T11:56:04;4.03;;;1.50;;
9420;SDS011;4749;51.398;5.466;2022-08-04T11:58:38;7.20;;;1.83;;
9420;SDS011;4749;51.398;5.466;2022-08-04T12:01:17;6.70;;;2.13;;
9420;SDS011;4749;51.398;5.466;2022-08-04T12:16:37;6.70;;;2.25;;
9420;SDS011;4749;51.398;5.466;2022-08-04T12:19:21;4.55;;;1.77;;
9420;SDS011;4749;51.398;5.466;2022-08-04T12:22:20;6.30;;;2.10;;
9420;SDS011;4749;51.398;5.466;2022-08-04T12:25:07;6.20;;;2.03;;
9420;SDS011;4749;51.398;5.466;2022-08-04T12:27:41;5.95;;;1.95;;
9420;SDS011;4749;51.398;5.466;2022-08-04T12:30:44;3.92;;;1.90;;
9420;SDS011;4749;51.398;5.466;2022-08-04T12:36:23;6.07;;;1.80;;
9420;SDS011;4749;51.398;5.466;2022-08-04T12:39:09;5.40;;;2.20;;
9420;SDS011;4749;51.398;5.466;2022-08-04T12:41:57;4.93;;;2.17;;
9420;SDS011;4749;51.398;5.466;2022-08-04T12:44:47;6.35;;;1.90;;
9420;SDS011;4749;51.398;5.466;2022-08-04T12:47:26;5.90;;;2.03;;
9420;SDS011;4749;51.398;5.466;2022-08-04T12:49:56;5.80;;;2.13;;
9420;SDS011;4749;51.398;5.466;2022-08-04T12:52:30;4.90;;;2.30;;
9420;SDS011;4749;51.398;5.466;2022-08-04T12:55:28;6.70;;;2.10;;
9420;SDS011;4749;51.398;5.466;2022-08-04T12:57:58;4.07;;;2.05;;
9420;SDS011;4749;51.398;5.466;2022-08-04T13:00:36;4.30;;;1.83;;
9420;SDS011;4749;51.398;5.466;2022-08-04T13:03:13;4.85;;;1.67;;
9420;SDS011;4749;51.398;5.466;2022-08-04T13:05:43;5.30;;;2.15;;
9420;SDS011;4749;51.398;5.466;2022-08-04T13:08:11;5.20;;;1.77;;
9420;SDS011;4749;51.398;5.466;2022-08-04T13:10:42;2.92;;;2.30;;
9420;SDS011;4749;51.398;5.466;2022-08-04T13:13:20;7.90;;;2.45;;
9420;SDS011;4749;51.398;5.466;2022-08-04T13:18:29;5.93;;;2.70;;
9420;SDS011;4749;51.398;5.466;2022-08-04T13:21:12;5.05;;;2.50;;
9420;SDS011;4749;51.398;5.466;2022-08-04T13:23:47;5.93;;;2.50;;
9420;SDS011;4749;51.398;5.466;2022-08-04T13:29:42;7.07;;;2.40;;
9420;SDS011;4749;51.398;5.466;2022-08-04T13:32:28;7.78;;;2.65;;
9420;SDS011;4749;51.398;5.466;2022-08-04T13:34:57;5.93;;;2.72;;
9420;SDS011;4749;51.398;5.466;2022-08-04T13:37:33;6.00;;;2.60;;
9420;SDS011;4749;51.398;5.466;2022-08-04T13:40:05;4.65;;;2.90;;
9420;SDS011;4749;51.398;5.466;2022-08-04T13:42:37;5.95;;;2.67;;
9420;SDS011;4749;51.398;5.466;2022-08-04T13:45:06;5.55;;;2.80;;
9420;SDS011;4749;51.398;5.466;2022-08-04T13:47:35;4.57;;;2.63;;
9420;SDS011;4749;51.398;5.466;2022-08-04T13:50:06;4.68;;;2.22;;
9420;SDS011;4749;51.398;5.466;2022-08-04T13:52:36;4.65;;;2.10;;
9420;SDS011;4749;51.398;5.466;2022-08-04T13:55:07;5.47;;;2.13;;
9420;SDS011;4749;51.398;5.466;2022-08-04T13:57:57;5.15;;;2.10;;
9420;SDS011;4749;51.398;5.466;2022-08-04T14:00:43;3.53;;;2.22;;
9420;SDS011;4749;51.398;5.466;2022-08-04T14:03:25;5.30;;;2.00;;
9420;SDS011;4749;51.398;5.466;2022-08-04T14:09:14;6.45;;;2.47;;
9420;SDS011;4749;51.398;5.466;2022-08-04T14:11:44;5.47;;;2.40;;
9420;SDS011;4749;51.398;5.466;2022-08-04T14:14:44;6.35;;;2.20;;
9420;SDS011;4749;51.398;5.466;2022-08-04T14:17:18;8.55;;;2.65;;
9420;SDS011;4749;51.398;5.466;2022-08-04T14:25:09;5.53;;;2.15;;
9420;SDS011;4749;51.398;5.466;2022-08-04T14:27:42;4.65;;;2.10;;
9420;SDS011;4749;51.398;5.466;2022-08-04T14:30:30;6.50;;;1.88;;
9420;SDS011;4749;51.398;5.466;2022-08-04T14:35:56;7.07;;;1.60;;
9420;SDS011;4749;51.398;5.466;2022-08-04T14:38:43;5.28;;;1.63;;
9420;SDS011;4749;51.398;5.466;2022-08-04T14:41:20;5.57;;;1.98;;
9420;SDS011;4749;51.398;5.466;2022-08-04T14:43:58;5.57;;;1.90;;
9420;SDS011;4749;51.398;5.466;2022-08-04T14:46:29;5.32;;;1.80;;
9420;SDS011;4749;51.398;5.466;2022-08-04T14:49:09;4.15;;;2.08;;
9420;SDS011;4749;51.398;5.466;2022-08-04T14:51:39;5.97;;;1.92;;
9420;SDS011;4749;51.398;5.466;2022-08-04T14:54:12;7.93;;;1.77;;
9420;SDS011;4749;51.398;5.466;2022-08-04T14:56:50;6.85;;;2.13;;
9420;SDS011;4749;51.398;5.466;2022-08-04T14:59:26;3.53;;;1.98;;
9420;SDS011;4749;51.398;5.466;2022-08-04T15:02:10;4.35;;;2.30;;
9420;SDS011;4749;51.398;5.466;2022-08-04T15:04:44;5.90;;;2.30;;
9420;SDS011;4749;51.398;5.466;2022-08-04T15:07:12;6.93;;;2.22;;
9420;SDS011;4749;51.398;5.466;2022-08-04T15:09:42;4.78;;;2.10;;
9420;SDS011;4749;51.398;5.466;2022-08-04T15:12:09;4.43;;;1.90;;
9420;SDS011;4749;51.398;5.466;2022-08-04T15:14:47;5.28;;;1.77;;
9420;SDS011;4749;51.398;5.466;2022-08-04T15:17:15;2.90;;;1.65;;
9420;SDS011;4749;51.398;5.466;2022-08-04T15:20:04;5.00;;;1.85;;
9420;SDS011;4749;51.398;5.466;2022-08-04T15:22:39;6.35;;;2.17;;
9420;SDS011;4749;51.398;5.466;2022-08-04T15:25:21;8.80;;;1.90;;
9420;SDS011;4749;51.398;5.466;2022-08-04T15:27:48;4.80;;;1.90;;
9420;SDS011;4749;51.398;5.466;2022-08-04T15:30:18;5.85;;;2.22;;
9420;SDS011;4749;51.398;5.466;2022-08-04T15:32:55;9.90;;;2.80;;
9420;SDS011;4749;51.398;5.466;2022-08-04T15:35:26;5.22;;;1.95;;
9420;SDS011;4749;51.398;5.466;2022-08-04T15:38:15;3.97;;;2.58;;
9420;SDS011;4749;51.398;5.466;2022-08-04T15:41:09;5.32;;;2.90;;
9420;SDS011;4749;51.398;5.466;2022-08-04T15:43:50;4.25;;;2.13;;
9420;SDS011;4749;51.398;5.466;2022-08-04T15:49:30;4.78;;;2.60;;
9420;SDS011;4749;51.398;5.466;2022-08-04T15:51:59;3.55;;;2.17;;
9420;SDS011;4749;51.398;5.466;2022-08-04T15:54:37;5.80;;;2.47;;
9420;SDS011;4749;51.398;5.466;2022-08-04T15:57:08;3.33;;;1.77;;
9420;SDS011;4749;51.398;5.466;2022-08-04T16:07:53;3.25;;;1.80;;
9420;SDS011;4749;51.398;5.466;2022-08-04T16:10:39;3.38;;;2.53;;
9420;SDS011;4749;51.398;5.466;2022-08-04T16:13:10;3.20;;;1.88;;
9420;SDS011;4749;51.398;5.466;2022-08-04T16:15:56;3.42;;;2.53;;
9420;SDS011;4749;51.398;5.466;2022-08-04T16:20:57;3.72;;;1.77;;
9420;SDS011;4749;51.398;5.466;2022-08-04T16:34:31;2.60;;;1.40;;
9420;SDS011;4749;51.398;5.466;2022-08-04T16:37:20;3.50;;;1.55;;
9420;SDS011;4749;51.398;5.466;2022-08-04T16:48:22;3.92;;;1.73;;
9420;SDS011;4749;51.398;5.466;2022-08-04T16:51:05;4.28;;;1.65;;
9420;SDS011;4749;51.398;5.466;2022-08-04T16:53:40;3.72;;;1.85;;
9420;SDS011;4749;51.398;5.466;2022-08-04T16:56:30;3.42;;;1.58;;
9420;SDS011;4749;51.398;5.466;2022-08-04T16:59:04;6.50;;;2.15;;
9420;SDS011;4749;51.398;5.466;2022-08-04T17:01:46;3.88;;;1.60;;
9420;SDS011;4749;51.398;5.466;2022-08-04T17:04:29;4.47;;;1.58;;
9420;SDS011;4749;51.398;5.466;2022-08-04T17:07:00;6.22;;;1.60;;
9420;SDS011;4749;51.398;5.466;2022-08-04T17:09:30;3.45;;;1.40;;
9420;SDS011;4749;51.398;5.466;2022-08-04T17:12:04;5.53;;;2.10;;
9420;SDS011;4749;51.398;5.466;2022-08-04T17:14:35;7.35;;;2.22;;
9420;SDS011;4749;51.398;5.466;2022-08-04T17:17:05;5.05;;;1.63;;
9420;SDS011;4749;51.398;5.466;2022-08-04T17:19:34;3.30;;;1.80;;
9420;SDS011;4749;51.398;5.466;2022-08-04T17:22:06;1.92;;;1.60;;
9420;SDS011;4749;51.398;5.466;2022-08-04T17:24:37;3.95;;;1.85;;
9420;SDS011;4749;51.398;5.466;2022-08-04T17:27:06;3.20;;;1.58;;
9420;SDS011;4749;51.398;5.466;2022-08-04T17:29:55;4.15;;;1.85;;
9420;SDS011;4749;51.398;5.466;2022-08-04T17:32:23;2.85;;;1.50;;
9420;SDS011;4749;51.398;5.466;2022-08-04T17:34:55;5.10;;;1.65;;
9420;SDS011;4749;51.398;5.466;2022-08-04T17:37:28;3.97;;;1.60;;
9420;SDS011;4749;51.398;5.466;2022-08-04T17:40:10;5.10;;;2.05;;
9420;SDS011;4749;51.398;5.466;2022-08-04T17:43:00;5.25;;;1.75;;
9420;SDS011;4749;51.398;5.466;2022-08-04T17:49:21;6.00;;;1.80;;
9420;SDS011;4749;51.398;5.466;2022-08-04T17:51:53;3.70;;;1.58;;
9420;SDS011;4749;51.398;5.466;2022-08-04T17:54:33;3.13;;;1.95;;
9420;SDS011;4749;51.398;5.466;2022-08-04T17:57:15;2.25;;;1.38;;
9420;SDS011;4749;51.398;5.466;2022-08-04T17:59:53;2.58;;;1.70;;
9420;SDS011;4749;51.398;5.466;2022-08-04T18:02:28;5.00;;;1.50;;
9420;SDS011;4749;51.398;5.466;2022-08-04T18:05:01;1.98;;;1.15;;
9420;SDS011;4749;51.398;5.466;2022-08-04T18:07:36;4.03;;;1.30;;
9420;SDS011;4749;51.398;5.466;2022-08-04T18:10:34;3.13;;;1.35;;
9420;SDS011;4749;51.398;5.466;2022-08-04T18:13:25;3.90;;;1.35;;
9420;SDS011;4749;51.398;5.466;2022-08-04T18:16:01;3.15;;;1.33;;
9420;SDS011;4749;51.398;5.466;2022-08-04T18:19:07;3.15;;;1.20;;
9420;SDS011;4749;51.398;5.466;2022-08-04T18:21:40;4.20;;;1.40;;
9420;SDS011;4749;51.398;5.466;2022-08-04T18:24:25;5.45;;;1.88;;
9420;SDS011;4749;51.398;5.466;2022-08-04T18:27:15;2.65;;;1.50;;
9420;SDS011;4749;51.398;5.466;2022-08-04T18:29:45;3.08;;;1.13;;
9420;SDS011;4749;51.398;5.466;2022-08-04T18:32:32;3.28;;;1.13;;
9420;SDS011;4749;51.398;5.466;2022-08-04T18:35:01;1.90;;;1.25;;
9420;SDS011;4749;51.398;5.466;2022-08-04T18:37:33;2.50;;;1.27;;
9420;SDS011;4749;51.398;5.466;2022-08-04T18:40:22;3.40;;;1.40;;
9420;SDS011;4749;51.398;5.466;2022-08-04T18:42:56;2.67;;;1.10;;
9420;SDS011;4749;51.398;5.466;2022-08-04T18:45:25;4.63;;;1.25;;
9420;SDS011;4749;51.398;5.466;2022-08-04T18:48:00;3.33;;;1.38;;
9420;SDS011;4749;51.398;5.466;2022-08-04T18:50:39;2.33;;;1.33;;
9420;SDS011;4749;51.398;5.466;2022-08-04T18:53:27;3.92;;;1.50;;
9420;SDS011;4749;51.398;5.466;2022-08-04T18:56:01;3.70;;;1.30;;
9420;SDS011;4749;51.398;5.466;2022-08-04T18:58:51;3.65;;;1.00;;
9420;SDS011;4749;51.398;5.466;2022-08-04T19:01:19;4.60;;;1.50;;
9420;SDS011;4749;51.398;5.466;2022-08-04T19:03:55;2.78;;;1.17;;
9420;SDS011;4749;51.398;5.466;2022-08-04T19:06:23;4.95;;;1.20;;
9420;SDS011;4749;51.398;5.466;2022-08-04T19:08:52;1.75;;;1.13;;
9420;SDS011;4749;51.398;5.466;2022-08-04T19:11:19;3.05;;;1.27;;
9420;SDS011;4749;51.398;5.466;2022-08-04T19:14:07;2.50;;;1.10;;
9420;SDS011;4749;51.398;5.466;2022-08-04T19:16:39;4.78;;;1.20;;
9420;SDS011;4749;51.398;5.466;2022-08-04T19:19:13;2.22;;;1.13;;
9420;SDS011;4749;51.398;5.466;2022-08-04T19:21:42;2.75;;;1.30;;
9420;SDS011;4749;51.398;5.466;2022-08-04T19:24:27;2.70;;;1.35;;
9420;SDS011;4749;51.398;5.466;2022-08-04T19:27:01;2.30;;;1.08;;
9420;SDS011;4749;51.398;5.466;2022-08-04T19:29:33;3.33;;;1.33;;
9420;SDS011;4749;51.398;5.466;2022-08-04T19:32:07;2.88;;;1.30;;
9420;SDS011;4749;51.398;5.466;2022-08-04T19:34:42;2.95;;;1.20;;
9420;SDS011;4749;51.398;5.466;2022-08-04T19:37:14;3.28;;;1.05;;
9420;SDS011;4749;51.398;5.466;2022-08-04T19:40:07;3.47;;;1.08;;
9420;SDS011;4749;51.398;5.466;2022-08-04T19:42:35;2.72;;;1.13;;
9420;SDS011;4749;51.398;5.466;2022-08-04T19:45:03;2.10;;;1.10;;
9420;SDS011;4749;51.398;5.466;2022-08-04T19:47:32;4.55;;;1.55;;
9420;SDS011;4749;51.398;5.466;2022-08-04T19:50:19;5.50;;;1.80;;
9420;SDS011;4749;51.398;5.466;2022-08-04T19:52:49;6.00;;;1.20;;
9420;SDS011;4749;51.398;5.466;2022-08-04T19:55:37;1.98;;;1.17;;
9420;SDS011;4749;51.398;5.466;2022-08-04T19:58:05;2.17;;;1.23;;
9420;SDS011;4749;51.398;5.466;2022-08-04T20:00:34;3.90;;;1.52;;
9420;SDS011;4749;51.398;5.466;2022-08-04T20:03:06;3.42;;;1.30;;
9420;SDS011;4749;51.398;5.466;2022-08-04T20:05:45;3.08;;;1.45;;
9420;SDS011;4749;51.398;5.466;2022-08-04T20:08:21;3.15;;;1.42;;
9420;SDS011;4749;51.398;5.466;2022-08-04T20:10:53;4.57;;;1.40;;
9420;SDS011;4749;51.398;5.466;2022-08-04T20:13:22;2.65;;;1.50;;
9420;SDS011;4749;51.398;5.466;2022-08-04T20:16:02;2.70;;;1.48;;
9420;SDS011;4749;51.398;5.466;2022-08-04T20:18:53;2.00;;;1.10;;
9420;SDS011;4749;51.398;5.466;2022-08-04T20:21:28;9.80;;;2.53;;
9420;SDS011;4749;51.398;5.466;2022-08-04T20:24:16;6.85;;;2.30;;
9420;SDS011;4749;51.398;5.466;2022-08-04T20:27:03;11.18;;;3.20;;
9420;SDS011;4749;51.398;5.466;2022-08-04T20:29:40;5.82;;;2.22;;
9420;SDS011;4749;51.398;5.466;2022-08-04T20:32:18;7.85;;;3.03;;
9420;SDS011;4749;51.398;5.466;2022-08-04T20:34:52;6.32;;;2.40;;
9420;SDS011;4749;51.398;5.466;2022-08-04T20:37:22;5.60;;;2.55;;
9420;SDS011;4749;51.398;5.466;2022-08-04T20:40:11;7.63;;;2.70;;
9420;SDS011;4749;51.398;5.466;2022-08-04T20:42:38;5.72;;;2.17;;
9420;SDS011;4749;51.398;5.466;2022-08-04T20:45:10;6.40;;;2.55;;
9420;SDS011;4749;51.398;5.466;2022-08-04T20:47:42;8.90;;;3.05;;
9420;SDS011;4749;51.398;5.466;2022-08-04T20:50:19;4.30;;;2.20;;
9420;SDS011;4749;51.398;5.466;2022-08-04T20:52:55;8.48;;;3.10;;
9420;SDS011;4749;51.398;5.466;2022-08-04T20:55:24;4.93;;;3.05;;
9420;SDS011;4749;51.398;5.466;2022-08-04T20:57:55;7.00;;;3.00;;
9420;SDS011;4749;51.398;5.466;2022-08-04T21:00:42;9.02;;;3.17;;
9420;SDS011;4749;51.398;5.466;2022-08-04T21:03:18;5.43;;;2.85;;